Time;durP1;ratioP1;P1;durP2;ratioP2;P2;SDS_P1;SDS_P2;PMS_P1;PMS_P2;Temp;Humidity;BMP_temperature;BMP_pressure;BME280_temperature;BME280_humidity;BME280_pressure;Samples;Min_cycle;Max_cycle;Signal;HPM_P1;HPM_P2
2023/02/14 00:01:23;;;;;;;48.53;25.70;;;;;;;6.32;100.00;103790.66;5007816;28;20612;-67
2023/02/14 00:03:48;;;;;;;48.00;25.53;;;;;;;6.30;100.00;103789.63;5010525;28;20686;-68
2023/02/14 00:06:14;;;;;;;47.00;25.33;;;;;;;6.26;100.00;103794.34;5009374;28;20238;-68
2023/02/14 00:08:43;;;;;;;45.03;25.43;;;;;;;6.26;100.00;103791.78;5010265;28;20293;-68
2023/02/14 00:11:10;;;;;;;46.37;25.13;;;;;;;6.23;100.00;103779.72;4994267;28;20199;-68
2023/02/14 00:13:36;;;;;;;45.17;24.87;;;;;;;6.24;100.00;103781.50;5006808;28;20190;-68
2023/02/14 00:16:02;;;;;;;45.83;23.63;;;;;;;6.23;100.00;103783.91;5011647;28;20706;-68
2023/02/14 00:19:02;;;;;;;45.13;24.10;;;;;;;6.21;100.00;103786.31;5010740;28;20634;-68
2023/02/14 00:21:13;;;;;;;47.97;25.50;;;;;;;6.22;100.00;103788.06;5010790;28;20202;-68
2023/02/14 00:23:39;;;;;;;47.03;25.53;;;;;;;6.20;100.00;103787.06;5007958;28;20195;-68
2023/02/14 00:26:04;;;;;;;49.03;26.37;;;;;;;6.19;100.00;103784.41;5010490;28;20349;-68
2023/02/14 00:28:30;;;;;;;46.43;25.80;;;;;;;6.19;100.00;103790.38;5009146;28;20700;-68
2023/02/14 00:31:00;;;;;;;42.90;23.90;;;;;;;6.21;100.00;103790.53;5004627;28;20298;-68
2023/02/14 00:33:26;;;;;;;45.33;24.93;;;;;;;6.18;100.00;103782.63;5008603;28;20191;-68
2023/02/14 00:35:52;;;;;;;44.53;25.93;;;;;;;6.19;100.00;103790.38;4991131;28;20199;-68
2023/02/14 00:38:19;;;;;;;45.90;25.20;;;;;;;6.18;100.00;103793.66;5004423;28;20199;-68
2023/02/14 00:40:44;;;;;;;46.80;25.37;;;;;;;6.19;100.00;103790.38;5010050;28;20187;-68
2023/02/14 00:43:10;;;;;;;47.03;27.10;;;;;;;6.19;100.00;103782.75;5006404;28;20613;-68
2023/02/14 00:45:35;;;;;;;48.27;26.67;;;;;;;6.18;100.00;103786.03;5011857;28;20214;-68
2023/02/14 00:48:01;;;;;;;52.63;27.37;;;;;;;6.18;100.00;103787.72;5009910;28;20293;-68
2023/02/14 00:50:26;;;;;;;48.97;27.00;;;;;;;6.15;100.00;103788.34;4988948;28;20652;-68
2023/02/14 00:52:52;;;;;;;49.97;25.87;;;;;;;6.15;100.00;103789.97;4987885;28;20260;-68
2023/02/14 00:55:17;;;;;;;48.27;25.73;;;;;;;6.12;100.00;103785.53;5010535;28;20273;-68
2023/02/14 00:57:42;;;;;;;46.77;25.57;;;;;;;6.12;100.00;103782.13;5007966;28;20210;-68
2023/02/14 01:00:08;;;;;;;48.40;27.20;;;;;;;6.12;100.00;103777.91;4989408;28;20457;-67
2023/02/14 01:02:34;;;;;;;45.37;24.90;;;;;;;6.11;100.00;103781.22;5007566;28;20198;-68
2023/02/14 01:04:59;;;;;;;50.57;26.37;;;;;;;6.09;100.00;103780.22;4990411;28;20191;-68
2023/02/14 01:07:25;;;;;;;45.57;25.50;;;;;;;6.10;100.00;103781.97;4992021;28;20230;-67
2023/02/14 01:09:50;;;;;;;44.57;26.20;;;;;;;6.09;100.00;103790.38;5007939;28;20223;-67
2023/02/14 01:12:15;;;;;;;46.93;26.87;;;;;;;6.08;100.00;103777.53;5009925;28;20187;-68
2023/02/14 01:14:41;;;;;;;44.90;25.60;;;;;;;6.07;100.00;103784.25;5007655;28;20186;-68
2023/02/14 01:17:06;;;;;;;49.73;25.83;;;;;;;6.08;100.00;103775.84;5005299;28;20222;-68
2023/02/14 01:19:32;;;;;;;46.77;25.40;;;;;;;6.06;100.00;103772.31;5009583;28;20668;-67
2023/02/14 01:21:59;;;;;;;47.47;25.37;;;;;;;6.09;100.00;103769.13;5010027;28;20197;-68
2023/02/14 01:24:25;;;;;;;54.47;27.60;;;;;;;6.08;100.00;103768.22;5005472;28;20203;-68
2023/02/14 01:26:50;;;;;;;44.70;26.23;;;;;;;6.09;100.00;103774.22;4988182;28;20767;-68
2023/02/14 01:29:16;;;;;;;50.40;25.83;;;;;;;6.07;100.00;103761.38;5003692;28;20195;-69
2023/02/14 01:31:41;;;;;;;47.80;26.13;;;;;;;6.06;100.00;103767.22;5007822;28;20726;-68
2023/02/14 01:34:07;;;;;;;50.33;26.90;;;;;;;6.07;100.00;103763.91;5009361;28;20222;-68
2023/02/14 01:36:38;;;;;;;47.37;26.23;;;;;;;6.06;100.00;103763.78;5009190;28;20230;-68
2023/02/14 01:39:14;;;;;;;47.83;27.10;;;;;;;6.02;100.00;103769.34;5009241;28;20218;-69
2023/02/14 01:41:42;;;;;;;52.57;27.03;;;;;;;5.98;100.00;103773.31;4991929;28;20198;-68
2023/02/14 01:44:14;;;;;;;49.13;27.00;;;;;;;6.00;100.00;103769.25;4987172;28;20203;-68
2023/02/14 01:46:40;;;;;;;53.40;26.90;;;;;;;6.01;100.00;103765.94;5002772;28;20215;-68
2023/02/14 01:49:26;;;;;;;51.10;25.83;;;;;;;6.01;100.00;103765.03;5010374;28;20214;-68
2023/02/14 01:52:07;;;;;;;48.17;26.13;;;;;;;5.98;100.00;103760.59;5008598;28;20191;-67
2023/02/14 01:54:37;;;;;;;52.03;26.97;;;;;;;5.98;100.00;103754.63;5004662;28;20222;-68
2023/02/14 01:57:06;;;;;;;53.27;27.20;;;;;;;5.93;100.00;103761.84;5009317;28;20826;-67
2023/02/14 01:59:37;;;;;;;51.03;27.57;;;;;;;5.92;100.00;103760.09;4993512;28;20266;-68
2023/02/14 02:02:04;;;;;;;55.93;27.13;;;;;;;5.94;100.00;103745.84;5008910;28;20195;-68
2023/02/14 02:04:44;;;;;;;54.90;28.13;;;;;;;5.92;100.00;103749.91;5010512;28;20217;-68
2023/02/14 02:07:16;;;;;;;53.87;28.03;;;;;;;5.90;100.00;103745.47;5006734;28;20564;-68
2023/02/14 02:10:03;;;;;;;49.97;27.53;;;;;;;5.94;100.00;103743.28;5007105;28;20190;-68
2023/02/14 02:12:28;;;;;;;51.67;27.03;;;;;;;5.95;100.00;103750.16;5009328;28;20248;-68
2023/02/14 02:14:55;;;;;;;50.27;27.33;;;;;;;5.94;100.00;103745.84;4992007;28;20202;-68
2023/02/14 02:17:51;;;;;;;51.70;27.13;;;;;;;5.95;100.00;103739.09;5003651;28;20211;-68
2023/02/14 02:20:35;;;;;;;50.23;26.47;;;;;;;5.92;100.00;103742.28;4996214;28;20294;-67
2023/02/14 02:23:13;;;;;;;56.17;26.87;;;;;;;5.88;100.00;103741.88;4976989;28;20199;-68
2023/02/14 02:25:56;;;;;;;49.37;26.47;;;;;;;5.85;100.00;103737.44;4996337;28;20186;-68
2023/02/14 02:28:37;;;;;;;52.83;27.30;;;;;;;5.85;100.00;103734.88;5014451;28;20261;-68
2023/02/14 02:31:31;;;;;;;50.43;26.30;;;;;;;5.82;100.00;103734.66;5012867;28;20195;-67
2023/02/14 02:34:05;;;;;;;57.50;27.43;;;;;;;5.83;100.00;103738.06;4995199;28;20652;-67
2023/02/14 02:36:49;;;;;;;52.27;28.03;;;;;;;5.81;100.00;103742.13;5010243;28;20583;-67
2023/02/14 02:39:33;;;;;;;53.47;27.63;;;;;;;5.77;100.00;103740.97;5012100;28;20206;-67
2023/02/14 02:42:04;;;;;;;50.60;27.10;;;;;;;5.77;100.00;103732.44;4997865;28;20256;-68
2023/02/14 02:44:52;;;;;;;52.37;26.53;;;;;;;5.75;100.00;103734.84;4993363;28;20675;-68
2023/02/14 02:47:24;;;;;;;52.20;27.93;;;;;;;5.75;100.00;103734.84;5011305;28;20762;-68
2023/02/14 02:53:24;;;;;;;55.23;27.13;;;;;;;5.68;100.00;103737.63;5013890;28;20198;-68
2023/02/14 02:59:19;;;;;;;56.03;27.27;;;;;;;5.73;100.00;103735.47;4998309;28;20714;-68
2023/02/14 03:02:05;;;;;;;55.27;28.77;;;;;;;5.72;100.00;103739.69;4988453;28;20237;-69
2023/02/14 03:04:52;;;;;;;53.83;28.87;;;;;;;5.69;100.00;103731.78;5011823;28;20662;-69
2023/02/14 03:07:36;;;;;;;53.33;28.10;;;;;;;5.70;100.00;103733.56;4995501;28;20245;-69
2023/02/14 03:10:11;;;;;;;53.37;27.50;;;;;;;5.65;100.00;103727.19;4991759;28;20221;-68
2023/02/14 03:12:43;;;;;;;49.80;27.70;;;;;;;5.60;100.00;103728.47;5014441;28;20253;-68
2023/02/14 03:15:15;;;;;;;56.80;29.83;;;;;;;5.61;100.00;103727.69;5009730;28;20631;-68
2023/02/14 03:17:51;;;;;;;53.53;28.77;;;;;;;5.62;100.00;103726.06;5010440;28;20207;-68
2023/02/14 03:20:25;;;;;;;56.00;29.17;;;;;;;5.64;100.00;103725.41;5010225;28;20281;-68
2023/02/14 03:23:02;;;;;;;55.30;28.33;;;;;;;5.60;100.00;103719.94;5007598;28;20191;-67
2023/02/14 03:25:37;;;;;;;51.43;27.07;;;;;;;5.55;100.00;103726.28;5010248;28;21726;-67
2023/02/14 03:28:14;;;;;;;54.67;28.33;;;;;;;5.55;100.00;103718.66;5010285;28;20214;-69
2023/02/14 03:31:03;;;;;;;52.13;28.37;;;;;;;5.50;100.00;103720.81;4995497;28;20194;-68
2023/02/14 03:33:28;;;;;;;54.27;27.67;;;;;;;5.50;100.00;103719.91;4994811;28;20561;-68
2023/02/14 03:36:02;;;;;;;53.63;27.43;;;;;;;5.49;100.00;103710.50;5012882;28;20282;-67
2023/02/14 03:38:38;;;;;;;53.70;28.73;;;;;;;5.50;100.00;103714.81;5008790;28;20186;-67
2023/02/14 03:41:10;;;;;;;52.17;27.63;;;;;;;5.49;100.00;103716.50;5011914;28;20627;-67
2023/02/14 03:43:43;;;;;;;51.07;26.93;;;;;;;5.49;100.00;103713.06;5010303;28;20699;-68
2023/02/14 03:46:21;;;;;;;56.47;26.63;;;;;;;5.44;100.00;103707.56;5011770;28;20719;-69
2023/02/14 03:48:49;;;;;;;54.93;27.70;;;;;;;5.43;100.00;103710.00;5011902;28;20614;-69
2023/02/14 03:51:17;;;;;;;51.97;28.00;;;;;;;5.42;100.00;103708.19;5013684;28;20199;-69
2023/02/14 03:53:46;;;;;;;50.73;26.70;;;;;;;5.40;100.00;103707.19;5009224;28;20202;-69
2023/02/14 03:56:17;;;;;;;48.73;26.63;;;;;;;5.39;100.00;103696.13;5009554;28;20215;-68
2023/02/14 03:58:50;;;;;;;54.53;27.97;;;;;;;5.35;100.00;103701.69;5009627;28;20268;-69
2023/02/14 04:01:30;;;;;;;49.43;26.87;;;;;;;5.32;100.00;103698.91;5012779;28;20210;-68
2023/02/14 04:03:58;;;;;;;51.93;27.20;;;;;;;5.32;100.00;103695.47;5011770;28;20274;-68
2023/02/14 04:06:23;;;;;;;51.27;27.50;;;;;;;5.36;100.00;103692.44;5015055;28;20270;-68
2023/02/14 04:08:49;;;;;;;56.27;27.63;;;;;;;5.36;100.00;103684.81;4977016;28;20623;-68
2023/02/14 04:11:14;;;;;;;51.70;27.00;;;;;;;5.34;100.00;103687.22;4994284;28;20213;-68
2023/02/14 04:13:40;;;;;;;51.97;25.33;;;;;;;5.35;100.00;103680.50;5013739;28;20190;-68
2023/02/14 04:16:06;;;;;;;52.07;27.27;;;;;;;5.34;100.00;103688.88;5011477;28;20195;-68
2023/02/14 04:21:15;;;;;;;49.67;25.10;;;;;;;5.32;100.00;103683.66;5012272;28;20615;-68
2023/02/14 04:23:41;;;;;;;49.23;25.80;;;;;;;5.32;100.00;103691.28;4993641;28;20289;-69
2023/02/14 04:26:07;;;;;;;50.37;26.23;;;;;;;5.32;100.00;103687.84;5012011;28;20218;-68
2023/02/14 04:28:32;;;;;;;51.47;26.53;;;;;;;5.27;100.00;103682.38;5011791;28;20215;-68
2023/02/14 04:31:03;;;;;;;55.33;25.63;;;;;;;5.26;100.00;103679.72;5010659;28;20273;-68
2023/02/14 04:33:28;;;;;;;53.90;26.90;;;;;;;5.28;100.00;103681.63;5013767;28;20226;-68
2023/02/14 04:35:54;;;;;;;52.93;27.23;;;;;;;5.24;100.00;103682.13;4996887;28;20274;-68
2023/02/14 04:38:19;;;;;;;51.47;25.77;;;;;;;5.22;100.00;103673.47;5009874;28;20249;-68
2023/02/14 04:40:48;;;;;;;54.50;26.93;;;;;;;5.25;100.00;103678.81;5010271;28;20209;-68
2023/02/14 04:43:13;;;;;;;46.97;25.23;;;;;;;5.24;100.00;103679.56;5013278;28;20278;-68
2023/02/14 04:45:39;;;;;;;50.27;26.70;;;;;;;5.24;100.00;103671.94;5012545;28;22065;-67
2023/02/14 04:48:04;;;;;;;50.47;26.90;;;;;;;5.21;100.00;103679.28;5014066;28;20218;-68
2023/02/14 04:50:29;;;;;;;52.97;26.17;;;;;;;5.20;100.00;103671.56;4999429;28;20203;-67
2023/02/14 04:52:55;;;;;;;53.50;25.73;;;;;;;5.22;100.00;103680.19;5008238;28;20231;-67
2023/02/14 04:55:20;;;;;;;53.17;25.20;;;;;;;5.21;100.00;103669.13;5010054;28;20244;-67
2023/02/14 04:57:46;;;;;;;52.43;26.67;;;;;;;5.20;100.00;103667.38;5016321;28;20718;-67
2023/02/14 05:00:12;;;;;;;52.63;25.93;;;;;;;5.19;100.00;103669.75;5012473;28;20206;-67
2023/02/14 05:02:37;;;;;;;48.63;25.30;;;;;;;5.20;100.00;103674.13;5013210;28;20190;-67
2023/02/14 05:05:03;;;;;;;49.43;24.63;;;;;;;5.21;100.00;103679.28;5014172;28;20658;-67
2023/02/14 05:07:28;;;;;;;50.87;26.27;;;;;;;5.21;100.00;103678.44;5011137;28;20689;-67
2023/02/14 05:09:53;;;;;;;47.77;24.83;;;;;;;5.21;100.00;103679.28;5009834;28;20187;-67
2023/02/14 05:12:19;;;;;;;49.27;26.97;;;;;;;5.19;100.00;103678.28;5011925;28;20553;-67
2023/02/14 05:14:44;;;;;;;50.47;26.00;;;;;;;5.23;100.00;103679.44;5011929;28;20664;-67
2023/02/14 05:17:10;;;;;;;49.97;26.00;;;;;;;5.21;100.00;103676.75;5008306;28;20695;-67
2023/02/14 05:19:35;;;;;;;48.20;25.40;;;;;;;5.20;100.00;103674.97;5010593;28;20200;-67
2023/02/14 05:22:01;;;;;;;54.27;27.50;;;;;;;5.21;100.00;103679.28;4993234;28;20352;-67
2023/02/14 05:24:26;;;;;;;49.60;25.03;;;;;;;5.22;100.00;103670.03;5008808;28;20249;-67
2023/02/14 05:26:52;;;;;;;52.20;25.80;;;;;;;5.24;100.00;103673.59;5013804;28;20214;-67
2023/02/14 05:29:17;;;;;;;52.30;26.07;;;;;;;5.25;100.00;103665.25;5010750;28;20206;-69
2023/02/14 05:31:42;;;;;;;47.70;24.97;;;;;;;5.22;100.00;103670.94;5007688;28;20199;-66
2023/02/14 05:34:08;;;;;;;51.47;26.60;;;;;;;5.23;100.00;103666.72;5011517;28;20199;-66
2023/02/14 05:36:33;;;;;;;50.00;25.83;;;;;;;5.23;100.00;103667.63;5010717;28;20222;-66
2023/02/14 05:38:59;;;;;;;51.10;26.53;;;;;;;5.24;100.00;103676.13;5008439;28;20548;-66
2023/02/14 05:41:24;;;;;;;48.33;25.10;;;;;;;5.24;100.00;103671.94;4995346;28;20230;-66
2023/02/14 05:43:50;;;;;;;50.57;25.67;;;;;;;5.24;100.00;103668.50;5014329;28;20272;-69
2023/02/14 05:46:15;;;;;;;51.37;27.63;;;;;;;5.26;100.00;103669.56;5010124;28;20211;-68
2023/02/14 05:48:41;;;;;;;53.50;28.67;;;;;;;5.25;100.00;103663.56;5014949;28;20221;-68
2023/02/14 05:51:08;;;;;;;54.67;26.50;;;;;;;5.26;100.00;103669.56;5013083;28;20229;-68
2023/02/14 05:53:34;;;;;;;48.37;24.40;;;;;;;5.27;100.00;103662.06;5010544;28;20206;-68
2023/02/14 05:56:00;;;;;;;51.77;26.67;;;;;;;5.28;100.00;103658.75;5010778;28;20195;-68
2023/02/14 05:58:25;;;;;;;52.47;26.80;;;;;;;5.27;100.00;103659.53;5013330;28;20801;-68
2023/02/14 06:00:51;;;;;;;48.77;27.10;;;;;;;5.28;100.00;103662.94;5008443;28;20722;-68
2023/02/14 06:03:16;;;;;;;51.90;27.53;;;;;;;5.26;100.00;103661.94;4992410;28;20269;-68
2023/02/14 06:05:42;;;;;;;51.10;26.17;;;;;;;5.26;100.00;103656.84;5013937;28;20195;-67
2023/02/14 06:08:07;;;;;;;49.63;26.17;;;;;;;5.24;100.00;103650.72;5006137;28;20302;-67
2023/02/14 06:10:33;;;;;;;54.23;26.60;;;;;;;5.26;100.00;103651.78;5010772;28;20285;-67
2023/02/14 06:12:58;;;;;;;52.27;25.70;;;;;;;5.28;100.00;103661.31;5013390;28;20289;-67
2023/02/14 06:15:24;;;;;;;51.27;26.70;;;;;;;5.25;100.00;103658.50;5011248;28;20186;-68
2023/02/14 06:17:54;;;;;;;48.67;25.50;;;;;;;5.26;100.00;103659.38;5011995;28;20285;-67
2023/02/14 06:20:21;;;;;;;49.77;24.93;;;;;;;5.28;100.00;103663.84;5011296;28;20640;-68
2023/02/14 06:22:46;;;;;;;50.43;25.93;;;;;;;5.29;100.00;103669.81;5008955;28;20286;-67
2023/02/14 06:25:12;;;;;;;48.50;25.80;;;;;;;5.30;100.00;103676.69;5009323;28;20223;-68
2023/02/14 06:27:38;;;;;;;50.47;25.57;;;;;;;5.29;100.00;103668.16;5013376;28;20225;-68
2023/02/14 06:30:05;;;;;;;50.97;26.83;;;;;;;5.30;100.00;103674.13;5011033;28;20718;-68
2023/02/14 06:32:30;;;;;;;44.17;25.67;;;;;;;5.28;100.00;103671.47;5009501;28;20294;-68
2023/02/14 06:34:55;;;;;;;50.30;26.30;;;;;;;5.27;100.00;103678.94;5010244;28;20282;-68
2023/02/14 06:37:21;;;;;;;51.70;27.30;;;;;;;5.23;100.00;103676.91;5008099;28;20309;-68
2023/02/14 06:39:46;;;;;;;52.37;27.00;;;;;;;5.24;100.00;103671.94;5008535;28;20215;-68
2023/02/14 06:42:12;;;;;;;51.20;25.97;;;;;;;5.24;100.00;103674.50;5012794;28;20720;-68
2023/02/14 06:44:37;;;;;;;51.27;27.10;;;;;;;5.26;100.00;103674.63;5013559;28;20210;-68
2023/02/14 06:47:03;;;;;;;51.60;27.93;;;;;;;5.25;100.00;103685.56;5009060;28;20338;-68
2023/02/14 06:49:28;;;;;;;46.90;25.63;;;;;;;5.23;100.00;103672.72;5012842;28;20213;-68
2023/02/14 06:51:54;;;;;;;45.97;26.07;;;;;;;5.24;100.00;103671.03;5015144;28;20203;-68
2023/02/14 06:54:19;;;;;;;49.63;26.77;;;;;;;5.24;100.00;103671.03;5009244;28;20207;-68
2023/02/14 06:56:45;;;;;;;50.97;27.63;;;;;;;5.23;100.00;103674.34;5014538;28;20226;-69
2023/02/14 06:59:10;;;;;;;52.50;26.77;;;;;;;5.24;100.00;103681.22;5012381;28;20207;-68
2023/02/14 07:01:36;;;;;;;54.70;29.07;;;;;;;5.28;100.00;103679.09;5012308;28;20656;-68
2023/02/14 07:04:01;;;;;;;55.63;28.57;;;;;;;5.29;100.00;103678.31;5010686;28;20195;-68
2023/02/14 07:06:26;;;;;;;53.70;26.43;;;;;;;5.31;100.00;103684.44;5012894;28;20308;-67
2023/02/14 07:08:52;;;;;;;49.40;26.07;;;;;;;5.33;100.00;103680.38;5013009;28;20730;-67
2023/02/14 07:11:17;;;;;;;44.27;25.27;;;;;;;5.36;100.00;103677.19;5013202;28;20708;-68
2023/02/14 07:13:43;;;;;;;51.90;25.57;;;;;;;5.38;100.00;103663.84;5019318;28;20186;-67
2023/02/14 07:16:09;;;;;;;46.70;24.30;;;;;;;5.42;100.00;103673.53;5014393;28;20210;-67
2023/02/14 07:18:34;;;;;;;46.20;24.93;;;;;;;5.42;100.00;103665.91;5014774;28;20199;-67
2023/02/14 07:21:00;;;;;;;47.73;26.57;;;;;;;5.42;100.00;103665.91;5014708;28;20245;-67
2023/02/14 07:23:25;;;;;;;45.43;24.43;;;;;;;5.45;100.00;103665.28;5011963;28;20202;-68
2023/02/14 07:25:50;;;;;;;52.27;25.70;;;;;;;5.47;100.00;103663.75;5014936;28;20281;-68
2023/02/14 07:28:16;;;;;;;44.43;24.43;;;;;;;5.50;100.00;103659.84;5017456;28;20673;-68
2023/02/14 07:30:41;;;;;;;49.50;25.77;;;;;;;5.55;100.00;103661.09;5015851;28;20265;-68
2023/02/14 07:33:07;;;;;;;46.63;25.47;;;;;;;5.61;100.00;103665.81;5011335;28;20195;-68
2023/02/14 07:35:34;;;;;;;46.77;23.50;;;;;;;5.65;100.00;103668.75;4999409;28;20274;-68
2023/02/14 07:37:59;;;;;;;45.90;25.17;;;;;;;5.68;100.00;103663.94;5013025;28;20235;-68
2023/02/14 07:40:25;;;;;;;43.13;24.70;;;;;;;5.73;100.00;103665.19;5013145;28;20297;-68
2023/02/14 07:42:55;;;;;;;48.83;26.10;;;;;;;5.80;100.00;103657.34;5019296;28;20198;-68
2023/02/14 07:45:21;;;;;;;45.17;24.97;;;;;;;5.87;100.00;103661.28;5015618;28;20286;-68
2023/02/14 07:47:50;;;;;;;44.57;25.23;;;;;;;5.89;100.00;103663.19;4994305;28;20581;-68
2023/02/14 07:50:16;;;;;;;44.10;23.50;;;;;;;6.09;100.00;103659.75;5014594;28;20280;-68
2023/02/14 07:52:41;;;;;;;43.33;24.33;;;;;;;6.14;100.00;103653.41;5016500;28;20218;-68
2023/02/14 07:55:07;;;;;;;46.07;26.37;;;;;;;6.17;100.00;103657.06;5012239;28;20194;-68
2023/02/14 07:57:33;;;;;;;44.07;24.90;;;;;;;6.27;100.00;103656.19;5018818;28;20725;-68
2023/02/14 07:59:58;;;;;;;38.87;24.43;;;;;;;6.35;100.00;103652.63;5015117;28;20282;-68
2023/02/14 08:02:23;;;;;;;40.60;22.63;;;;;;;6.39;100.00;103657.16;5012297;28;20191;-68
2023/02/14 08:04:49;;;;;;;47.87;24.97;;;;;;;6.49;100.00;103657.19;5016508;28;20194;-68
2023/02/14 08:07:14;;;;;;;42.73;22.87;;;;;;;6.59;100.00;103660.56;4994416;28;20229;-68
2023/02/14 08:09:40;;;;;;;42.80;23.73;;;;;;;6.72;100.00;103659.91;5013200;28;20603;-69
2023/02/14 08:14:49;;;;;;;45.23;23.53;;;;;;;6.97;100.00;103664.53;5015076;28;20186;-68
2023/02/14 08:17:15;;;;;;;37.90;20.80;;;;;;;7.04;100.00;103664.22;5010221;28;20560;-68
2023/02/14 08:19:40;;;;;;;36.37;21.87;;;;;;;7.13;100.00;103658.94;5013813;28;20233;-68
2023/02/14 08:22:06;;;;;;;38.93;23.30;;;;;;;7.09;100.00;103662.91;5012466;28;20198;-68
2023/02/14 08:24:31;;;;;;;39.60;21.73;;;;;;;7.18;100.00;103653.44;5011510;28;20289;-68
2023/02/14 08:26:57;;;;;;;43.07;22.97;;;;;;;7.34;100.00;103652.97;5016869;28;20222;-68
2023/02/14 08:29:23;;;;;;;38.47;21.83;;;;;;;7.42;100.00;103649.38;5016433;28;20194;-68
2023/02/14 08:31:48;;;;;;;34.33;20.47;;;;;;;7.50;100.00;103653.38;5011556;28;20207;-69
2023/02/14 08:34:15;;;;;;;37.33;22.40;;;;;;;7.55;100.00;103655.50;5013407;28;20194;-69
2023/02/14 08:36:40;;;;;;;34.50;20.63;;;;;;;7.60;100.00;103651.66;5013359;28;20234;-67
2023/02/14 08:39:07;;;;;;;36.30;20.03;;;;;;;7.75;100.00;103652.84;5011617;28;20282;-66
2023/02/14 08:41:34;;;;;;;33.57;19.90;;;;;;;7.95;100.00;103655.22;4997553;28;20650;-66
2023/02/14 08:44:00;;;;;;;34.20;20.23;;;;;;;8.12;100.00;103656.47;5009614;28;20286;-68
2023/02/14 08:46:26;;;;;;;33.13;19.20;;;;;;;8.32;100.00;103652.09;4986592;28;20305;-68
2023/02/14 08:48:53;;;;;;;35.13;20.87;;;;;;;8.49;100.00;103659.34;5005829;28;20214;-68
2023/02/14 08:51:19;;;;;;;32.23;20.30;;;;;;;8.71;100.00;103656.66;5013684;28;20201;-68
2023/02/14 08:53:45;;;;;;;33.97;19.07;;;;;;;8.87;100.00;103656.97;5010961;28;20210;-67
2023/02/14 08:56:14;;;;;;;32.00;19.87;;;;;;;9.15;100.00;103653.00;5006613;28;20219;-67
2023/02/14 08:58:39;;;;;;;31.77;19.47;;;;;;;9.56;100.00;103656.75;5016851;28;20276;-68
2023/02/14 09:01:14;;;;;;;31.87;20.20;;;;;;;9.91;100.00;103654.94;5009760;28;20254;-67
2023/02/14 09:03:40;;;;;;;28.83;18.90;;;;;;;9.91;100.00;103650.69;5003996;28;20205;-67
2023/02/14 09:06:08;;;;;;;27.47;17.97;;;;;;;10.38;100.00;103649.66;5014299;28;20337;-67
2023/02/14 09:08:36;;;;;;;31.00;20.03;;;;;;;10.60;100.00;103639.97;4986949;28;20238;-67
2023/02/14 09:11:21;;;;;;;28.77;19.37;;;;;;;11.16;100.00;103643.56;5008687;28;20217;-68
2023/02/14 09:13:48;;;;;;;25.00;18.03;;;;;;;12.69;100.00;103635.69;5011724;28;20865;-68
2023/02/14 09:16:16;;;;;;;22.27;17.93;;;;;;;15.01;100.00;103622.81;5009404;28;20264;-68
2023/02/14 09:18:42;;;;;;;23.03;17.93;;;;;;;16.46;81.88;103627.50;5008424;28;20254;-68
2023/02/14 09:21:10;;;;;;;21.93;17.47;;;;;;;17.37;68.75;103620.69;5008659;28;20328;-68
2023/02/14 09:23:36;;;;;;;21.65;17.30;;;;;;;17.60;61.84;103609.47;5011057;28;20210;-68
2023/02/14 09:26:04;;;;;;;23.40;17.90;;;;;;;19.20;57.10;103615.59;5004366;28;20191;-68
2023/02/14 09:28:29;;;;;;;22.17;17.52;;;;;;;19.75;51.73;103609.34;5016201;28;20302;-68
2023/02/14 09:30:55;;;;;;;21.13;18.00;;;;;;;20.54;48.99;103607.88;5012009;28;20755;-68
2023/02/14 09:33:21;;;;;;;20.63;17.35;;;;;;;21.69;45.23;103600.81;5008643;28;20194;-68
2023/02/14 09:35:46;;;;;;;22.88;18.77;;;;;;;21.48;41.95;103593.44;4996896;28;20256;-67
2023/02/14 09:38:12;;;;;;;20.02;16.30;;;;;;;22.03;41.27;103596.16;5010958;28;20219;-68
2023/02/14 09:40:37;;;;;;;20.83;17.70;;;;;;;22.75;40.66;103585.97;5006041;28;20198;-67
2023/02/14 09:43:31;;;;;;;20.85;17.75;;;;;;;22.79;39.12;103590.38;5012812;28;20191;-67
2023/02/14 09:45:59;;;;;;;22.98;19.15;;;;;;;21.35;40.07;103596.66;5010233;28;20214;-67
2023/02/14 09:48:30;;;;;;;22.73;18.02;;;;;;;23.16;39.15;103586.50;5009059;28;20223;-68
2023/02/14 09:51:03;;;;;;;18.83;16.83;;;;;;;23.76;36.75;103585.41;5008459;28;20203;-68
2023/02/14 09:53:33;;;;;;;19.80;17.63;;;;;;;22.63;39.17;103587.53;5000373;28;20812;-68
2023/02/14 09:56:07;;;;;;;19.35;17.10;;;;;;;23.31;37.36;103582.38;5007906;28;20229;-68
2023/02/14 09:58:59;;;;;;;21.35;18.15;;;;;;;24.83;35.06;103581.00;4981215;28;20187;-68
2023/02/14 10:01:31;;;;;;;20.73;18.38;;;;;;;23.71;36.06;103588.88;5009403;28;20207;-68
2023/02/14 10:04:37;;;;;;;19.80;17.05;;;;;;;23.10;36.57;103579.47;5008705;28;20664;-68
2023/02/14 10:07:18;;;;;;;19.83;17.20;;;;;;;24.95;34.84;103573.19;5008731;28;20301;-68
2023/02/14 10:10:05;;;;;;;19.65;16.83;;;;;;;26.64;32.95;103561.94;5004268;28;20202;-68
2023/02/14 10:12:39;;;;;;;19.80;17.15;;;;;;;25.40;33.91;103570.72;5015689;28;20194;-68
2023/02/14 10:15:17;;;;;;;20.77;17.95;;;;;;;26.04;33.14;103569.91;5007235;28;20194;-69
2023/02/14 10:17:52;;;;;;;21.45;18.33;;;;;;;25.23;33.11;103560.13;5008623;28;20210;-68
2023/02/14 10:20:20;;;;;;;21.30;18.17;;;;;;;26.22;32.07;103567.25;5014675;28;20693;-67
2023/02/14 10:23:00;;;;;;;20.05;17.25;;;;;;;26.60;33.31;103565.44;5009161;28;20216;-67
2023/02/14 10:25:34;;;;;;;20.25;18.05;;;;;;;26.42;31.08;103570.72;5007234;28;20191;-68
2023/02/14 10:28:00;;;;;;;20.48;17.55;;;;;;;27.97;30.26;103562.91;5015118;28;20227;-68
2023/02/14 10:30:26;;;;;;;20.30;17.98;;;;;;;27.61;29.85;103561.44;5013712;28;20190;-68
2023/02/14 10:33:03;;;;;;;22.00;18.55;;;;;;;25.29;33.16;103562.84;5007450;28;20563;-67
2023/02/14 10:35:41;;;;;;;22.65;18.65;;;;;;;27.04;31.83;103553.88;5014573;28;20198;-67
2023/02/14 10:38:49;;;;;;;20.13;17.88;;;;;;;27.21;30.58;103549.41;4990157;28;20266;-67
2023/02/14 10:41:26;;;;;;;19.73;17.15;;;;;;;27.82;30.82;103542.81;5010037;28;20699;-67
2023/02/14 10:44:13;;;;;;;20.77;18.58;;;;;;;25.96;31.75;103538.41;5015209;28;20230;-67
2023/02/14 10:47:04;;;;;;;19.77;16.92;;;;;;;28.21;29.82;103533.66;5015236;28;20232;-67
2023/02/14 10:50:04;;;;;;;20.48;18.27;;;;;;;28.04;30.07;103533.84;5013486;28;20238;-68
2023/02/14 10:52:41;;;;;;;19.70;17.65;;;;;;;28.33;29.57;103529.13;5017132;28;20194;-68
2023/02/14 10:55:41;;;;;;;22.33;18.90;;;;;;;26.87;30.69;103542.56;5009625;28;20205;-71
2023/02/14 10:58:13;;;;;;;21.33;18.75;;;;;;;27.58;29.99;103540.38;5007306;28;20262;-71
2023/02/14 11:00:47;;;;;;;21.20;18.60;;;;;;;27.94;29.32;103529.56;5011936;28;20190;-71
2023/02/14 11:03:13;;;;;;;22.17;18.45;;;;;;;28.75;28.79;103536.59;5011106;28;20209;-71
2023/02/14 11:05:44;;;;;;;19.98;17.83;;;;;;;27.73;29.33;103542.88;5013899;28;20186;-71
2023/02/14 11:08:13;;;;;;;20.83;18.50;;;;;;;27.11;29.97;103546.78;5014423;28;20313;-71
2023/02/14 11:10:38;;;;;;;23.00;18.97;;;;;;;26.69;31.40;103547.91;4992170;28;20778;-71
2023/02/14 11:13:32;;;;;;;21.80;18.20;;;;;;;27.04;31.32;103537.19;5016245;28;20222;-70
2023/02/14 11:16:03;;;;;;;23.25;18.13;;;;;;;28.68;29.65;103534.00;5019829;28;20203;-71
2023/02/14 11:18:31;;;;;;;21.17;18.25;;;;;;;29.13;27.61;103522.88;5006394;28;20195;-71
2023/02/14 11:21:10;;;;;;;20.88;17.25;;;;;;;30.10;27.62;103525.66;5021540;28;20194;-70
2023/02/14 11:23:39;;;;;;;21.65;18.50;;;;;;;28.72;28.16;103538.38;5009655;28;20195;-71
2023/02/14 11:26:28;;;;;;;19.33;17.23;;;;;;;30.01;27.29;103529.34;5005220;28;20199;-70
2023/02/14 11:29:02;;;;;;;20.10;17.88;;;;;;;29.48;27.57;103515.28;5017001;28;20695;-70
2023/02/14 11:31:30;;;;;;;21.40;18.50;;;;;;;29.81;27.08;103515.63;5009682;28;20562;-71
2023/02/14 11:33:57;;;;;;;20.15;18.05;;;;;;;28.40;28.35;103508.88;5012964;28;20749;-71